Hilliard, Ohio
Current Conditions -  °F | °C
As of 3:53 PM on Sunday 21 Dec 2014 (Local Time) from KOSU Reporting Station
Clear Clear  
Wind Chill: 30°   Ceiling: Unl
Heat Index: 36°   Visibility: 8mi
Dew Point: 22°   Wind: 7mph
Humidity: 57%   Direction: 120°ESE
Pressure: 30.2"   Gusts: NA
Location:  40.03°N, 83.15°W
Report Text: KOSU 212053Z 12006KT 8SM CLR 02/M06 A3020 RMK AO2 SLP235 T00221056 56017
Loading
Personal Weather Stations






























Interactive Weather Map New forecast layout! Learn more

10-Day Weather Forecast

Advertisements
Track Severe Weather on mobile